Ru Kontio — OIRV — position and weather

sailwx.info

Track history (hours):
 
Tides and Currents Weather Stations Pressure Air Temp Water Temp Dewpoint Dewpoint Depression Visibility Wind Speed Wind Dir Waves Ship Positions

Ru Kontio

Last reported at 2015-May-07 11:33 UTC. Time now 2015-May-26 07:43 UTC.
Position N 60°08' E 024°59'.
Warning: this ship's position is 18 days out of date.

Type: Other ship. MMSI: 230251000.

Date/timePositionNaut miles runAvg speedWind from/ knotsBaromVisibWave heightAir tempDewpointWater temp
2015-May-07 11:33N 60°08' E 024°59'17 2.4
2015-May-07 04:32N 59°55' E 024°39'1312.3
2015-May-07 03:26N 59°48' E 024°16'1112.3
2015-May-07 02:32N 59°45' E 023°54'1212.5
2015-May-07 01:33N 59°42' E 023°31'1412.5
2015-May-07 00:28N 59°39' E 023°05'4212.3
2015-May-06 21:04N 59°32' E 021°43'612.0
2015-May-06 20:33N 59°34' E 021°32'1111.5
2015-May-06 19:33N 59°44' E 021°21'1110.5
2015-May-06 18:33N 59°53' E 021°32'  
Track history (hours):
 
Tides and Currents Weather Stations Pressure Air Temp Water Temp Dewpoint Dewpoint Depression Visibility Wind Speed Wind Dir Waves Ship Positions

Ru Kontio

Last reported at 2015-May-07 11:33 UTC. Time now 2015-May-26 07:43 UTC.
Position N 60°08' E 024°59'.
Warning: this ship's position is 18 days out of date.

Type: Other ship. MMSI: 230251000.

Date/timePositionNaut miles runAvg speedWind from/ knotsBaromVisibWave heightAir tempDewpointWater temp
2015-May-07 11:33N 60°08' E 024°59'17 2.4
2015-May-07 04:32N 59°55' E 024°39'1312.3
2015-May-07 03:26N 59°48' E 024°16'1112.3
2015-May-07 02:32N 59°45' E 023°54'1212.5
2015-May-07 01:33N 59°42' E 023°31'1412.5
2015-May-07 00:28N 59°39' E 023°05'4212.3
2015-May-06 21:04N 59°32' E 021°43'612.0
2015-May-06 20:33N 59°34' E 021°32'1111.5
2015-May-06 19:33N 59°44' E 021°21'1110.5
2015-May-06 18:33N 59°53' E 021°32'  

Dump ship's entire track history